sensor_id;sensor_type;location;lat;lon;timestamp;P1;P2;P0
42410;PMS5003;28056;51.112;0.984;2023-04-15T00:04:46;12;11;
42410;PMS5003;28056;51.112;0.984;2023-04-15T00:07:14;10;10;
42410;PMS5003;28056;51.112;0.984;2023-04-15T00:09:42;13;13;
42410;PMS5003;28056;51.112;0.984;2023-04-15T00:12:09;16;12;
42410;PMS5003;28056;51.112;0.984;2023-04-15T00:14:37;10;7;
42410;PMS5003;28056;51.112;0.984;2023-04-15T00:17:04;11;11;
42410;PMS5003;28056;51.112;0.984;2023-04-15T00:19:31;10;10;
42410;PMS5003;28056;51.112;0.984;2023-04-15T00:21:59;7;7;
42410;PMS5003;28056;51.112;0.984;2023-04-15T00:24:27;10;10;
42410;PMS5003;28056;51.112;0.984;2023-04-15T00:26:55;11;10;
42410;PMS5003;28056;51.112;0.984;2023-04-15T00:29:22;7;6;
42410;PMS5003;28056;51.112;0.984;2023-04-15T00:31:50;10;7;
42410;PMS5003;28056;51.112;0.984;2023-04-15T00:34:17;8;8;
42410;PMS5003;28056;51.112;0.984;2023-04-15T00:36:45;10;10;
42410;PMS5003;28056;51.112;0.984;2023-04-15T00:39:12;11;8;
42410;PMS5003;28056;51.112;0.984;2023-04-15T00:41:40;12;12;
42410;PMS5003;28056;51.112;0.984;2023-04-15T00:44:07;11;8;
42410;PMS5003;28056;51.112;0.984;2023-04-15T00:46:35;12;8;
42410;PMS5003;28056;51.112;0.984;2023-04-15T00:49:04;7;7;
42410;PMS5003;28056;51.112;0.984;2023-04-15T00:51:31;11;10;
42410;PMS5003;28056;51.112;0.984;2023-04-15T00:53:59;8;8;
42410;PMS5003;28056;51.112;0.984;2023-04-15T00:56:27;11;10;
42410;PMS5003;28056;51.112;0.984;2023-04-15T00:58:55;11;11;
42410;PMS5003;28056;51.112;0.984;2023-04-15T01:01:24;12;11;
42410;PMS5003;28056;51.112;0.984;2023-04-15T01:03:52;11;10;
42410;PMS5003;28056;51.112;0.984;2023-04-15T01:06:22;12;12;
42410;PMS5003;28056;51.112;0.984;2023-04-15T01:08:50;12;12;
42410;PMS5003;28056;51.112;0.984;2023-04-15T01:11:18;12;12;
42410;PMS5003;28056;51.112;0.984;2023-04-15T01:13:45;15;12;
42410;PMS5003;28056;51.112;0.984;2023-04-15T01:16:13;15;15;
42410;PMS5003;28056;51.112;0.984;2023-04-15T01:18:41;13;12;
42410;PMS5003;28056;51.112;0.984;2023-04-15T01:21:10;16;16;
42410;PMS5003;28056;51.112;0.984;2023-04-15T01:23:38;12;10;
42410;PMS5003;28056;51.112;0.984;2023-04-15T01:26:06;16;12;
42410;PMS5003;28056;51.112;0.984;2023-04-15T01:28:34;16;11;
42410;PMS5003;28056;51.112;0.984;2023-04-15T01:31:09;20;14;
42410;PMS5003;28056;51.112;0.984;2023-04-15T01:33:38;15;15;
42410;PMS5003;28056;51.112;0.984;2023-04-15T01:36:07;15;14;
42410;PMS5003;28056;51.112;0.984;2023-04-15T01:38:35;19;19;
42410;PMS5003;28056;51.112;0.984;2023-04-15T01:41:03;16;15;
42410;PMS5003;28056;51.112;0.984;2023-04-15T01:43:31;12;11;
42410;PMS5003;28056;51.112;0.984;2023-04-15T01:45:59;21;16;
42410;PMS5003;28056;51.112;0.984;2023-04-15T01:48:27;17;14;
42410;PMS5003;28056;51.112;0.984;2023-04-15T01:50:54;17;17;
42410;PMS5003;28056;51.112;0.984;2023-04-15T01:53:22;19;19;
42410;PMS5003;28056;51.112;0.984;2023-04-15T01:55:50;15;15;
42410;PMS5003;28056;51.112;0.984;2023-04-15T01:58:18;22;16;
42410;PMS5003;28056;51.112;0.984;2023-04-15T02:00:45;23;18;
42410;PMS5003;28056;51.112;0.984;2023-04-15T02:03:13;18;16;
42410;PMS5003;28056;51.112;0.984;2023-04-15T02:05:41;18;18;
42410;PMS5003;28056;51.112;0.984;2023-04-15T02:08:09;14;14;
42410;PMS5003;28056;51.112;0.984;2023-04-15T02:10:36;11;10;
42410;PMS5003;28056;51.112;0.984;2023-04-15T02:13:04;10;10;
42410;PMS5003;28056;51.112;0.984;2023-04-15T02:15:31;9;7;
42410;PMS5003;28056;51.112;0.984;2023-04-15T02:17:58;5;5;
42410;PMS5003;28056;51.112;0.984;2023-04-15T02:20:25;6;5;
42410;PMS5003;28056;51.112;0.984;2023-04-15T02:22:52;3;3;
42410;PMS5003;28056;51.112;0.984;2023-04-15T02:25:19;6;6;
42410;PMS5003;28056;51.112;0.984;2023-04-15T02:27:46;3;2;
42410;PMS5003;28056;51.112;0.984;2023-04-15T02:30:13;5;5;
42410;PMS5003;28056;51.112;0.984;2023-04-15T02:32:40;5;5;
42410;PMS5003;28056;51.112;0.984;2023-04-15T02:35:07;3;3;
42410;PMS5003;28056;51.112;0.984;2023-04-15T02:37:36;2;2;
42410;PMS5003;28056;51.112;0.984;2023-04-15T02:40:04;2;2;
42410;PMS5003;28056;51.112;0.984;2023-04-15T02:42:33;6;5;
42410;PMS5003;28056;51.112;0.984;2023-04-15T02:45:00;5;2;
42410;PMS5003;28056;51.112;0.984;2023-04-15T02:47:27;3;3;
42410;PMS5003;28056;51.112;0.984;2023-04-15T02:49:55;6;3;
42410;PMS5003;28056;51.112;0.984;2023-04-15T02:52:22;5;3;
42410;PMS5003;28056;51.112;0.984;2023-04-15T02:54:49;3;3;
42410;PMS5003;28056;51.112;0.984;2023-04-15T02:57:17;5;5;
42410;PMS5003;28056;51.112;0.984;2023-04-15T02:59:43;6;6;
42410;PMS5003;28056;51.112;0.984;2023-04-15T03:02:11;5;5;
42410;PMS5003;28056;51.112;0.984;2023-04-15T03:04:38;4;4;
42410;PMS5003;28056;51.112;0.984;2023-04-15T03:07:05;3;3;
42410;PMS5003;28056;51.112;0.984;2023-04-15T03:09:33;6;6;
42410;PMS5003;28056;51.112;0.984;2023-04-15T03:12:00;3;3;
42410;PMS5003;28056;51.112;0.984;2023-04-15T03:14:27;6;6;
42410;PMS5003;28056;51.112;0.984;2023-04-15T03:16:54;3;3;
42410;PMS5003;28056;51.112;0.984;2023-04-15T03:19:22;5;2;
42410;PMS5003;28056;51.112;0.984;2023-04-15T03:21:49;6;5;
42410;PMS5003;28056;51.112;0.984;2023-04-15T03:24:16;5;5;
42410;PMS5003;28056;51.112;0.984;2023-04-15T03:26:44;6;6;
42410;PMS5003;28056;51.112;0.984;2023-04-15T03:29:11;6;6;
42410;PMS5003;28056;51.112;0.984;2023-04-15T03:31:38;5;5;
42410;PMS5003;28056;51.112;0.984;2023-04-15T03:34:05;3;3;
42410;PMS5003;28056;51.112;0.984;2023-04-15T03:36:33;3;3;
42410;PMS5003;28056;51.112;0.984;2023-04-15T03:39:00;3;3;
42410;PMS5003;28056;51.112;0.984;2023-04-15T03:41:27;6;5;
42410;PMS5003;28056;51.112;0.984;2023-04-15T03:43:55;6;6;
42410;PMS5003;28056;51.112;0.984;2023-04-15T03:46:22;6;5;
42410;PMS5003;28056;51.112;0.984;2023-04-15T03:48:49;5;3;
42410;PMS5003;28056;51.112;0.984;2023-04-15T03:51:17;7;6;
42410;PMS5003;28056;51.112;0.984;2023-04-15T03:53:44;6;6;
42410;PMS5003;28056;51.112;0.984;2023-04-15T03:56:12;9;6;
42410;PMS5003;28056;51.112;0.984;2023-04-15T03:58:39;9;7;
42410;PMS5003;28056;51.112;0.984;2023-04-15T04:01:06;5;5;
42410;PMS5003;28056;51.112;0.984;2023-04-15T04:03:33;6;6;
42410;PMS5003;28056;51.112;0.984;2023-04-15T04:06:00;7;6;
42410;PMS5003;28056;51.112;0.984;2023-04-15T04:08:28;7;7;
42410;PMS5003;28056;51.112;0.984;2023-04-15T04:10:55;11;6;
42410;PMS5003;28056;51.112;0.984;2023-04-15T04:13:22;8;8;
42410;PMS5003;28056;51.112;0.984;2023-04-15T04:15:49;7;7;
42410;PMS5003;28056;51.112;0.984;2023-04-15T04:18:17;10;6;
42410;PMS5003;28056;51.112;0.984;2023-04-15T04:20:44;7;7;
42410;PMS5003;28056;51.112;0.984;2023-04-15T04:23:12;6;6;
42410;PMS5003;28056;51.112;0.984;2023-04-15T04:25:39;6;6;
42410;PMS5003;28056;51.112;0.984;2023-04-15T04:28:06;6;3;
42410;PMS5003;28056;51.112;0.984;2023-04-15T04:30:33;6;5;
42410;PMS5003;28056;51.112;0.984;2023-04-15T04:33:01;3;1;
42410;PMS5003;28056;51.112;0.984;2023-04-15T04:35:28;2;2;
42410;PMS5003;28056;51.112;0.984;2023-04-15T04:37:55;1;1;
42410;PMS5003;28056;51.112;0.984;2023-04-15T04:40:22;3;2;
42410;PMS5003;28056;51.112;0.984;2023-04-15T04:42:49;2;2;
42410;PMS5003;28056;51.112;0.984;2023-04-15T04:45:16;3;3;
42410;PMS5003;28056;51.112;0.984;2023-04-15T04:47:44;2;2;
42410;PMS5003;28056;51.112;0.984;2023-04-15T04:50:11;2;2;
42410;PMS5003;28056;51.112;0.984;2023-04-15T04:52:38;1;1;
42410;PMS5003;28056;51.112;0.984;2023-04-15T04:55:05;3;3;
42410;PMS5003;28056;51.112;0.984;2023-04-15T04:57:33;3;3;
42410;PMS5003;28056;51.112;0.984;2023-04-15T05:00:00;1;1;
42410;PMS5003;28056;51.112;0.984;2023-04-15T05:02:27;1;1;
42410;PMS5003;28056;51.112;0.984;2023-04-15T05:04:55;1;1;
42410;PMS5003;28056;51.112;0.984;2023-04-15T05:07:22;3;1;
42410;PMS5003;28056;51.112;0.984;2023-04-15T05:09:49;1;1;
42410;PMS5003;28056;51.112;0.984;2023-04-15T05:12:17;2;2;
42410;PMS5003;28056;51.112;0.984;2023-04-15T05:14:45;1;1;
42410;PMS5003;28056;51.112;0.984;2023-04-15T05:17:12;1;1;
42410;PMS5003;28056;51.112;0.984;2023-04-15T05:19:39;0;0;
42410;PMS5003;28056;51.112;0.984;2023-04-15T05:22:06;1;1;
42410;PMS5003;28056;51.112;0.984;2023-04-15T05:24:33;2;2;
42410;PMS5003;28056;51.112;0.984;2023-04-15T05:27:01;2;2;
42410;PMS5003;28056;51.112;0.984;2023-04-15T05:29:28;3;2;
42410;PMS5003;28056;51.112;0.984;2023-04-15T05:31:55;6;3;
42410;PMS5003;28056;51.112;0.984;2023-04-15T05:34:22;6;2;
42410;PMS5003;28056;51.112;0.984;2023-04-15T05:36:49;2;2;
42410;PMS5003;28056;51.112;0.984;2023-04-15T05:39:16;2;2;
42410;PMS5003;28056;51.112;0.984;2023-04-15T05:41:44;2;2;
42410;PMS5003;28056;51.112;0.984;2023-04-15T05:44:12;5;2;
42410;PMS5003;28056;51.112;0.984;2023-04-15T05:46:40;3;3;
42410;PMS5003;28056;51.112;0.984;2023-04-15T05:49:08;3;3;
42410;PMS5003;28056;51.112;0.984;2023-04-15T05:51:37;5;3;
42410;PMS5003;28056;51.112;0.984;2023-04-15T05:54:04;5;5;
42410;PMS5003;28056;51.112;0.984;2023-04-15T05:56:31;5;5;
42410;PMS5003;28056;51.112;0.984;2023-04-15T05:58:59;5;5;
42410;PMS5003;28056;51.112;0.984;2023-04-15T06:01:26;5;5;
42410;PMS5003;28056;51.112;0.984;2023-04-15T06:03:54;5;5;
42410;PMS5003;28056;51.112;0.984;2023-04-15T06:06:26;6;6;
42410;PMS5003;28056;51.112;0.984;2023-04-15T06:08:53;6;5;
42410;PMS5003;28056;51.112;0.984;2023-04-15T06:11:20;7;5;
42410;PMS5003;28056;51.112;0.984;2023-04-15T06:13:48;5;5;
42410;PMS5003;28056;51.112;0.984;2023-04-15T06:16:15;7;7;
42410;PMS5003;28056;51.112;0.984;2023-04-15T06:18:42;7;6;
42410;PMS5003;28056;51.112;0.984;2023-04-15T06:21:09;6;6;
42410;PMS5003;28056;51.112;0.984;2023-04-15T06:23:37;12;9;
42410;PMS5003;28056;51.112;0.984;2023-04-15T06:26:04;7;6;
42410;PMS5003;28056;51.112;0.984;2023-04-15T06:28:31;9;7;
42410;PMS5003;28056;51.112;0.984;2023-04-15T06:30:59;7;7;
42410;PMS5003;28056;51.112;0.984;2023-04-15T06:33:27;6;6;
42410;PMS5003;28056;51.112;0.984;2023-04-15T06:35:55;7;7;
42410;PMS5003;28056;51.112;0.984;2023-04-15T06:38:22;7;7;
42410;PMS5003;28056;51.112;0.984;2023-04-15T06:40:49;6;6;
42410;PMS5003;28056;51.112;0.984;2023-04-15T06:43:16;7;7;
42410;PMS5003;28056;51.112;0.984;2023-04-15T06:45:44;7;6;
42410;PMS5003;28056;51.112;0.984;2023-04-15T06:48:11;6;6;
42410;PMS5003;28056;51.112;0.984;2023-04-15T06:50:38;9;7;
42410;PMS5003;28056;51.112;0.984;2023-04-15T06:53:05;3;3;
42410;PMS5003;28056;51.112;0.984;2023-04-15T06:55:32;6;6;
42410;PMS5003;28056;51.112;0.984;2023-04-15T06:57:59;9;9;
42410;PMS5003;28056;51.112;0.984;2023-04-15T07:00:32;6;6;
42410;PMS5003;28056;51.112;0.984;2023-04-15T07:03:00;7;7;
42410;PMS5003;28056;51.112;0.984;2023-04-15T07:05:27;9;5;
42410;PMS5003;28056;51.112;0.984;2023-04-15T07:07:54;6;6;
42410;PMS5003;28056;51.112;0.984;2023-04-15T07:10:21;6;6;
42410;PMS5003;28056;51.112;0.984;2023-04-15T07:12:48;5;5;
42410;PMS5003;28056;51.112;0.984;2023-04-15T07:15:15;5;5;
42410;PMS5003;28056;51.112;0.984;2023-04-15T07:17:43;7;7;
42410;PMS5003;28056;51.112;0.984;2023-04-15T07:20:11;7;7;
42410;PMS5003;28056;51.112;0.984;2023-04-15T07:22:38;8;7;
42410;PMS5003;28056;51.112;0.984;2023-04-15T07:25:06;7;7;
42410;PMS5003;28056;51.112;0.984;2023-04-15T07:27:35;8;8;
42410;PMS5003;28056;51.112;0.984;2023-04-15T07:30:03;7;7;
42410;PMS5003;28056;51.112;0.984;2023-04-15T07:32:31;13;10;
42410;PMS5003;28056;51.112;0.984;2023-04-15T07:34:59;12;7;
42410;PMS5003;28056;51.112;0.984;2023-04-15T07:37:27;10;10;
42410;PMS5003;28056;51.112;0.984;2023-04-15T07:39:55;7;7;
42410;PMS5003;28056;51.112;0.984;2023-04-15T07:42:22;8;8;
42410;PMS5003;28056;51.112;0.984;2023-04-15T07:44:50;11;8;
42410;PMS5003;28056;51.112;0.984;2023-04-15T07:47:18;12;11;
42410;PMS5003;28056;51.112;0.984;2023-04-15T07:49:45;12;11;
42410;PMS5003;28056;51.112;0.984;2023-04-15T07:52:12;11;10;
42410;PMS5003;28056;51.112;0.984;2023-04-15T07:54:39;10;10;
42410;PMS5003;28056;51.112;0.984;2023-04-15T07:57:06;14;14;
42410;PMS5003;28056;51.112;0.984;2023-04-15T07:59:34;14;11;
42410;PMS5003;28056;51.112;0.984;2023-04-15T08:02:01;18;18;
42410;PMS5003;28056;51.112;0.984;2023-04-15T08:04:29;20;15;
42410;PMS5003;28056;51.112;0.984;2023-04-15T08:06:56;16;14;
42410;PMS5003;28056;51.112;0.984;2023-04-15T08:09:23;23;19;
42410;PMS5003;28056;51.112;0.984;2023-04-15T08:11:50;15;11;
42410;PMS5003;28056;51.112;0.984;2023-04-15T08:14:18;15;15;
42410;PMS5003;28056;51.112;0.984;2023-04-15T08:16:45;16;15;
42410;PMS5003;28056;51.112;0.984;2023-04-15T08:19:13;15;15;
42410;PMS5003;28056;51.112;0.984;2023-04-15T08:21:40;20;16;
42410;PMS5003;28056;51.112;0.984;2023-04-15T08:24:08;16;16;
42410;PMS5003;28056;51.112;0.984;2023-04-15T08:26:35;16;16;
42410;PMS5003;28056;51.112;0.984;2023-04-15T08:29:03;26;20;
42410;PMS5003;28056;51.112;0.984;2023-04-15T08:31:30;20;17;
42410;PMS5003;28056;51.112;0.984;2023-04-15T08:33:57;20;19;
42410;PMS5003;28056;51.112;0.984;2023-04-15T08:36:24;19;19;
42410;PMS5003;28056;51.112;0.984;2023-04-15T08:38:52;25;20;
42410;PMS5003;28056;51.112;0.984;2023-04-15T08:41:20;21;18;
42410;PMS5003;28056;51.112;0.984;2023-04-15T08:43:51;17;16;
42410;PMS5003;28056;51.112;0.984;2023-04-15T08:46:20;20;17;
42410;PMS5003;28056;51.112;0.984;2023-04-15T08:48:48;17;17;
42410;PMS5003;28056;51.112;0.984;2023-04-15T08:51:16;22;20;
42410;PMS5003;28056;51.112;0.984;2023-04-15T08:53:44;17;17;
42410;PMS5003;28056;51.112;0.984;2023-04-15T08:56:12;17;16;
42410;PMS5003;28056;51.112;0.984;2023-04-15T08:58:42;18;18;
42410;PMS5003;28056;51.112;0.984;2023-04-15T09:01:10;18;17;
42410;PMS5003;28056;51.112;0.984;2023-04-15T09:03:38;18;17;
42410;PMS5003;28056;51.112;0.984;2023-04-15T09:06:06;16;15;
42410;PMS5003;28056;51.112;0.984;2023-04-15T09:08:33;22;21;
42410;PMS5003;28056;51.112;0.984;2023-04-15T09:11:01;16;16;
42410;PMS5003;28056;51.112;0.984;2023-04-15T09:13:28;18;18;
42410;PMS5003;28056;51.112;0.984;2023-04-15T09:15:57;18;18;
42410;PMS5003;28056;51.112;0.984;2023-04-15T09:18:27;18;16;
42410;PMS5003;28056;51.112;0.984;2023-04-15T09:21:02;17;17;
42410;PMS5003;28056;51.112;0.984;2023-04-15T09:23:31;17;16;
42410;PMS5003;28056;51.112;0.984;2023-04-15T09:25:58;19;18;
42410;PMS5003;28056;51.112;0.984;2023-04-15T09:28:27;18;17;
42410;PMS5003;28056;51.112;0.984;2023-04-15T09:30:55;18;18;
42410;PMS5003;28056;51.112;0.984;2023-04-15T09:33:23;16;16;
42410;PMS5003;28056;51.112;0.984;2023-04-15T09:35:58;17;15;
42410;PMS5003;28056;51.112;0.984;2023-04-15T09:38:26;20;19;
42410;PMS5003;28056;51.112;0.984;2023-04-15T09:40:54;23;18;
42410;PMS5003;28056;51.112;0.984;2023-04-15T09:43:22;19;14;
42410;PMS5003;28056;51.112;0.984;2023-04-15T09:46:03;20;19;
42410;PMS5003;28056;51.112;0.984;2023-04-15T09:48:31;18;15;
42410;PMS5003;28056;51.112;0.984;2023-04-15T09:50:59;19;19;
42410;PMS5003;28056;51.112;0.984;2023-04-15T09:53:27;19;19;
42410;PMS5003;28056;51.112;0.984;2023-04-15T09:55:55;19;18;
42410;PMS5003;28056;51.112;0.984;2023-04-15T09:58:24;19;19;
42410;PMS5003;28056;51.112;0.984;2023-04-15T10:00:53;22;20;
42410;PMS5003;28056;51.112;0.984;2023-04-15T10:03:22;23;20;
42410;PMS5003;28056;51.112;0.984;2023-04-15T10:05:51;20;18;
42410;PMS5003;28056;51.112;0.984;2023-04-15T10:08:20;19;19;
42410;PMS5003;28056;51.112;0.984;2023-04-15T10:10:48;18;18;
42410;PMS5003;28056;51.112;0.984;2023-04-15T10:13:17;18;18;
42410;PMS5003;28056;51.112;0.984;2023-04-15T10:15:48;20;20;
42410;PMS5003;28056;51.112;0.984;2023-04-15T10:18:18;23;19;
42410;PMS5003;28056;51.112;0.984;2023-04-15T10:20:47;19;18;
42410;PMS5003;28056;51.112;0.984;2023-04-15T10:23:14;22;19;
42410;PMS5003;28056;51.112;0.984;2023-04-15T10:25:43;25;23;
42410;PMS5003;28056;51.112;0.984;2023-04-15T10:28:12;23;22;
42410;PMS5003;28056;51.112;0.984;2023-04-15T10:30:42;29;23;
42410;PMS5003;28056;51.112;0.984;2023-04-15T10:33:10;26;21;
42410;PMS5003;28056;51.112;0.984;2023-04-15T10:35:37;20;19;
42410;PMS5003;28056;51.112;0.984;2023-04-15T10:38:30;21;20;
42410;PMS5003;28056;51.112;0.984;2023-04-15T10:41:11;21;19;
42410;PMS5003;28056;51.112;0.984;2023-04-15T10:43:44;21;19;
42410;PMS5003;28056;51.112;0.984;2023-04-15T10:46:16;21;20;
42410;PMS5003;28056;51.112;0.984;2023-04-15T10:48:48;22;22;
42410;PMS5003;28056;51.112;0.984;2023-04-15T10:51:17;23;21;
42410;PMS5003;28056;51.112;0.984;2023-04-15T10:53:55;21;19;
42410;PMS5003;28056;51.112;0.984;2023-04-15T10:56:23;19;16;
42410;PMS5003;28056;51.112;0.984;2023-04-15T10:58:51;21;21;
42410;PMS5003;28056;51.112;0.984;2023-04-15T11:01:18;19;18;
42410;PMS5003;28056;51.112;0.984;2023-04-15T11:03:46;24;18;
42410;PMS5003;28056;51.112;0.984;2023-04-15T11:06:14;20;18;
42410;PMS5003;28056;51.112;0.984;2023-04-15T11:08:57;16;16;
42410;PMS5003;28056;51.112;0.984;2023-04-15T11:12:33;21;21;
42410;PMS5003;28056;51.112;0.984;2023-04-15T11:15:23;22;22;
42410;PMS5003;28056;51.112;0.984;2023-04-15T11:17:54;22;21;
42410;PMS5003;28056;51.112;0.984;2023-04-15T11:20:22;21;21;
42410;PMS5003;28056;51.112;0.984;2023-04-15T11:22:50;27;22;
42410;PMS5003;28056;51.112;0.984;2023-04-15T11:25:22;22;20;
42410;PMS5003;28056;51.112;0.984;2023-04-15T11:27:50;21;18;
42410;PMS5003;28056;51.112;0.984;2023-04-15T11:30:18;23;23;
42410;PMS5003;28056;51.112;0.984;2023-04-15T11:32:46;27;20;
42410;PMS5003;28056;51.112;0.984;2023-04-15T11:35:15;20;20;
42410;PMS5003;28056;51.112;0.984;2023-04-15T11:37:43;23;22;
42410;PMS5003;28056;51.112;0.984;2023-04-15T11:40:11;26;22;
42410;PMS5003;28056;51.112;0.984;2023-04-15T11:42:38;23;20;
42410;PMS5003;28056;51.112;0.984;2023-04-15T11:45:06;22;22;
42410;PMS5003;28056;51.112;0.984;2023-04-15T11:47:34;21;20;
42410;PMS5003;28056;51.112;0.984;2023-04-15T11:50:15;23;21;
42410;PMS5003;28056;51.112;0.984;2023-04-15T11:52:51;23;22;
42410;PMS5003;28056;51.112;0.984;2023-04-15T11:55:18;21;17;
42410;PMS5003;28056;51.112;0.984;2023-04-15T11:57:45;16;15;
42410;PMS5003;28056;51.112;0.984;2023-04-15T12:00:13;21;21;
42410;PMS5003;28056;51.112;0.984;2023-04-15T12:02:40;21;21;
42410;PMS5003;28056;51.112;0.984;2023-04-15T12:05:08;21;20;
42410;PMS5003;28056;51.112;0.984;2023-04-15T12:07:56;22;20;
42410;PMS5003;28056;51.112;0.984;2023-04-15T12:10:23;18;18;
42410;PMS5003;28056;51.112;0.984;2023-04-15T12:12:51;23;23;
42410;PMS5003;28056;51.112;0.984;2023-04-15T12:15:20;21;19;
42410;PMS5003;28056;51.112;0.984;2023-04-15T12:17:48;19;18;
42410;PMS5003;28056;51.112;0.984;2023-04-15T12:20:20;25;22;
42410;PMS5003;28056;51.112;0.984;2023-04-15T12:22:50;20;20;
42410;PMS5003;28056;51.112;0.984;2023-04-15T12:25:18;21;16;
42410;PMS5003;28056;51.112;0.984;2023-04-15T12:27:49;22;22;
42410;PMS5003;28056;51.112;0.984;2023-04-15T12:30:17;21;20;
42410;PMS5003;28056;51.112;0.984;2023-04-15T12:32:44;19;19;
42410;PMS5003;28056;51.112;0.984;2023-04-15T12:35:12;22;21;
42410;PMS5003;28056;51.112;0.984;2023-04-15T12:37:39;21;21;
42410;PMS5003;28056;51.112;0.984;2023-04-15T12:40:07;22;20;
42410;PMS5003;28056;51.112;0.984;2023-04-15T12:42:35;23;20;
42410;PMS5003;28056;51.112;0.984;2023-04-15T12:45:03;23;23;
42410;PMS5003;28056;51.112;0.984;2023-04-15T12:47:31;24;21;
42410;PMS5003;28056;51.112;0.984;2023-04-15T12:49:59;26;22;
42410;PMS5003;28056;51.112;0.984;2023-04-15T12:52:26;23;22;
42410;PMS5003;28056;51.112;0.984;2023-04-15T12:54:54;27;21;
42410;PMS5003;28056;51.112;0.984;2023-04-15T12:57:21;23;21;
42410;PMS5003;28056;51.112;0.984;2023-04-15T12:59:48;20;16;
42410;PMS5003;28056;51.112;0.984;2023-04-15T13:02:15;17;17;
42410;PMS5003;28056;51.112;0.984;2023-04-15T13:04:42;24;23;
42410;PMS5003;28056;51.112;0.984;2023-04-15T13:07:09;21;20;
42410;PMS5003;28056;51.112;0.984;2023-04-15T13:09:37;19;17;
42410;PMS5003;28056;51.112;0.984;2023-04-15T13:12:05;21;19;
42410;PMS5003;28056;51.112;0.984;2023-04-15T13:14:32;23;23;
42410;PMS5003;28056;51.112;0.984;2023-04-15T13:16:59;19;18;
42410;PMS5003;28056;51.112;0.984;2023-04-15T13:19:26;17;17;
42410;PMS5003;28056;51.112;0.984;2023-04-15T13:21:54;20;19;
42410;PMS5003;28056;51.112;0.984;2023-04-15T13:24:21;24;22;
42410;PMS5003;28056;51.112;0.984;2023-04-15T13:26:48;22;21;
42410;PMS5003;28056;51.112;0.984;2023-04-15T13:29:16;17;17;
42410;PMS5003;28056;51.112;0.984;2023-04-15T13:31:43;19;19;
42410;PMS5003;28056;51.112;0.984;2023-04-15T13:34:11;20;17;
42410;PMS5003;28056;51.112;0.984;2023-04-15T13:36:39;20;18;
42410;PMS5003;28056;51.112;0.984;2023-04-15T13:39:06;23;20;
42410;PMS5003;28056;51.112;0.984;2023-04-15T13:41:34;21;18;
42410;PMS5003;28056;51.112;0.984;2023-04-15T13:44:01;17;17;
42410;PMS5003;28056;51.112;0.984;2023-04-15T13:46:29;16;15;
42410;PMS5003;28056;51.112;0.984;2023-04-15T13:48:56;18;18;
42410;PMS5003;28056;51.112;0.984;2023-04-15T13:51:24;14;14;
42410;PMS5003;28056;51.112;0.984;2023-04-15T13:53:51;15;13;
42410;PMS5003;28056;51.112;0.984;2023-04-15T13:56:19;14;13;
42410;PMS5003;28056;51.112;0.984;2023-04-15T13:58:46;9;9;
42410;PMS5003;28056;51.112;0.984;2023-04-15T14:01:14;12;12;
42410;PMS5003;28056;51.112;0.984;2023-04-15T14:03:41;13;11;
42410;PMS5003;28056;51.112;0.984;2023-04-15T14:06:08;10;8;
42410;PMS5003;28056;51.112;0.984;2023-04-15T14:08:36;12;12;
42410;PMS5003;28056;51.112;0.984;2023-04-15T14:11:03;13;11;
42410;PMS5003;28056;51.112;0.984;2023-04-15T14:13:31;10;9;
42410;PMS5003;28056;51.112;0.984;2023-04-15T14:15:59;12;10;
42410;PMS5003;28056;51.112;0.984;2023-04-15T14:18:26;12;11;
42410;PMS5003;28056;51.112;0.984;2023-04-15T14:20:53;13;11;
42410;PMS5003;28056;51.112;0.984;2023-04-15T14:23:21;12;9;
42410;PMS5003;28056;51.112;0.984;2023-04-15T14:25:49;10;10;
42410;PMS5003;28056;51.112;0.984;2023-04-15T14:28:16;11;11;
42410;PMS5003;28056;51.112;0.984;2023-04-15T14:30:44;9;9;
42410;PMS5003;28056;51.112;0.984;2023-04-15T14:33:11;12;8;
42410;PMS5003;28056;51.112;0.984;2023-04-15T14:35:39;12;11;
42410;PMS5003;28056;51.112;0.984;2023-04-15T14:38:06;10;9;
42410;PMS5003;28056;51.112;0.984;2023-04-15T14:40:33;13;10;
42410;PMS5003;28056;51.112;0.984;2023-04-15T14:43:01;9;8;
42410;PMS5003;28056;51.112;0.984;2023-04-15T14:45:28;8;8;
42410;PMS5003;28056;51.112;0.984;2023-04-15T14:47:57;13;11;
42410;PMS5003;28056;51.112;0.984;2023-04-15T14:50:25;10;10;
42410;PMS5003;28056;51.112;0.984;2023-04-15T14:52:53;9;8;
42410;PMS5003;28056;51.112;0.984;2023-04-15T14:55:20;16;14;
42410;PMS5003;28056;51.112;0.984;2023-04-15T14:57:47;12;9;
42410;PMS5003;28056;51.112;0.984;2023-04-15T15:00:15;9;9;
42410;PMS5003;28056;51.112;0.984;2023-04-15T15:02:43;13;12;
42410;PMS5003;28056;51.112;0.984;2023-04-15T15:05:10;12;10;
42410;PMS5003;28056;51.112;0.984;2023-04-15T15:07:38;12;11;
42410;PMS5003;28056;51.112;0.984;2023-04-15T15:10:05;9;9;
42410;PMS5003;28056;51.112;0.984;2023-04-15T15:12:33;13;11;
42410;PMS5003;28056;51.112;0.984;2023-04-15T15:15:01;10;10;
42410;PMS5003;28056;51.112;0.984;2023-04-15T15:17:28;11;11;
42410;PMS5003;28056;51.112;0.984;2023-04-15T15:19:56;9;9;
42410;PMS5003;28056;51.112;0.984;2023-04-15T15:22:24;10;10;
42410;PMS5003;28056;51.112;0.984;2023-04-15T15:24:52;13;11;
42410;PMS5003;28056;51.112;0.984;2023-04-15T15:27:19;8;8;
42410;PMS5003;28056;51.112;0.984;2023-04-15T15:29:47;10;9;
42410;PMS5003;28056;51.112;0.984;2023-04-15T15:32:14;14;12;
42410;PMS5003;28056;51.112;0.984;2023-04-15T15:34:42;12;11;
42410;PMS5003;28056;51.112;0.984;2023-04-15T15:37:09;10;8;
42410;PMS5003;28056;51.112;0.984;2023-04-15T15:39:37;10;9;
42410;PMS5003;28056;51.112;0.984;2023-04-15T15:42:04;7;7;
42410;PMS5003;28056;51.112;0.984;2023-04-15T15:44:32;7;7;
42410;PMS5003;28056;51.112;0.984;2023-04-15T15:46:59;10;9;
42410;PMS5003;28056;51.112;0.984;2023-04-15T15:49:27;8;8;
42410;PMS5003;28056;51.112;0.984;2023-04-15T15:51:55;8;7;
42410;PMS5003;28056;51.112;0.984;2023-04-15T15:54:22;10;10;
42410;PMS5003;28056;51.112;0.984;2023-04-15T15:56:51;14;12;
42410;PMS5003;28056;51.112;0.984;2023-04-15T15:59:18;8;8;
42410;PMS5003;28056;51.112;0.984;2023-04-15T16:01:46;9;7;
42410;PMS5003;28056;51.112;0.984;2023-04-15T16:04:14;7;7;
42410;PMS5003;28056;51.112;0.984;2023-04-15T16:06:41;8;6;
42410;PMS5003;28056;51.112;0.984;2023-04-15T16:09:08;6;6;
42410;PMS5003;28056;51.112;0.984;2023-04-15T16:11:36;6;6;
42410;PMS5003;28056;51.112;0.984;2023-04-15T16:14:04;5;5;
42410;PMS5003;28056;51.112;0.984;2023-04-15T16:16:31;9;8;
42410;PMS5003;28056;51.112;0.984;2023-04-15T16:18:59;5;5;
42410;PMS5003;28056;51.112;0.984;2023-04-15T16:21:27;7;7;
42410;PMS5003;28056;51.112;0.984;2023-04-15T16:23:54;11;8;
42410;PMS5003;28056;51.112;0.984;2023-04-15T16:26:22;9;9;
42410;PMS5003;28056;51.112;0.984;2023-04-15T16:28:49;7;6;
42410;PMS5003;28056;51.112;0.984;2023-04-15T16:31:17;6;6;
42410;PMS5003;28056;51.112;0.984;2023-04-15T16:33:44;6;5;
42410;PMS5003;28056;51.112;0.984;2023-04-15T16:36:12;9;9;
42410;PMS5003;28056;51.112;0.984;2023-04-15T16:38:40;7;7;
42410;PMS5003;28056;51.112;0.984;2023-04-15T16:41:07;7;6;